Time;durP1;ratioP1;P1;durP2;ratioP2;P2;SDS_P1;SDS_P2;PMS_P1;PMS_P2;Temp;Humidity;BMP_temperature;BMP_pressure;BME280_temperature;BME280_humidity;BME280_pressure;Samples;Min_cycle;Max_cycle;Signal;HPM_P1;HPM_P2
2021/03/16 00:01:28;;;;;;;21.95;3.08;;;;;;;2.11;58.58;101745.94;5005124;28;20045;-71
2021/03/16 00:04:00;;;;;;;33.25;3.03;;;;;;;2.13;58.33;101751.94;4984797;28;20027;-71
2021/03/16 00:06:40;;;;;;;16.30;2.10;;;;;;;2.23;58.09;101751.19;5004453;28;20022;-71
2021/03/16 00:09:05;;;;;;;10.68;2.65;;;;;;;1.93;59.20;101756.94;5002378;28;20049;-71
2021/03/16 00:11:31;;;;;;;19.20;2.63;;;;;;;2.09;58.54;101757.94;5004936;28;20575;-70
2021/03/16 00:13:56;;;;;;;14.43;2.90;;;;;;;2.10;58.44;101764.81;5003572;28;20046;-70
2021/03/16 00:16:23;;;;;;;16.48;1.92;;;;;;;1.77;59.65;101760.19;5004592;28;20381;-72
2021/03/16 00:18:49;;;;;;;16.63;1.45;;;;;;;2.00;59.23;101763.88;5004765;28;20033;-72
2021/03/16 00:21:14;;;;;;;30.45;2.40;;;;;;;2.20;58.40;101766.66;5002286;28;20041;-71
2021/03/16 00:23:40;;;;;;;25.35;3.20;;;;;;;2.19;58.55;101775.22;5004312;28;20112;-71
2021/03/16 00:26:05;;;;;;;24.83;2.00;;;;;;;2.22;58.39;101775.28;5005112;28;20399;-72
2021/03/16 00:28:30;;;;;;;21.95;1.80;;;;;;;2.30;57.76;101778.75;5004845;28;20129;-72
2021/03/16 00:30:56;;;;;;;11.75;1.90;;;;;;;2.22;57.92;101780.44;5003896;28;20417;-72
2021/03/16 00:33:21;;;;;;;20.63;2.70;;;;;;;2.19;58.02;101780.38;5004395;28;20040;-72
2021/03/16 00:35:47;;;;;;;33.75;5.07;;;;;;;1.80;59.51;101786.88;4985512;28;20131;-72
2021/03/16 00:38:12;;;;;;;14.18;2.17;;;;;;;1.84;59.49;101787.75;5004814;28;20045;-72
2021/03/16 00:40:38;;;;;;;26.67;2.25;;;;;;;1.96;59.25;101787.03;5003293;28;20159;-72
2021/03/16 00:43:03;;;;;;;20.35;2.03;;;;;;;2.05;58.49;101785.41;4986926;28;20122;-72
2021/03/16 00:45:29;;;;;;;21.33;3.28;;;;;;;1.96;58.46;101792.19;5004069;28;20291;-72
2021/03/16 00:47:54;;;;;;;33.45;2.78;;;;;;;1.97;58.77;101788.75;5004065;28;20117;-72
2021/03/16 00:50:20;;;;;;;19.63;2.10;;;;;;;1.62;59.62;101789.25;4986133;28;20392;-73
2021/03/16 00:52:45;;;;;;;20.63;3.53;;;;;;;2.07;58.74;101794.03;5003486;28;20044;-76
2021/03/16 00:55:12;;;;;;;19.08;2.20;;;;;;;1.89;59.18;101793.84;4972680;28;20034;-70
2021/03/16 00:57:38;;;;;;;19.88;2.80;;;;;;;1.86;58.88;101794.69;5018904;28;20389;-71
2021/03/16 01:00:05;;;;;;;17.73;2.80;;;;;;;1.81;59.03;101796.31;4994233;23;20062;-69
2021/03/16 01:02:30;;;;;;;22.05;3.85;;;;;;;1.85;59.04;101795.50;4973114;28;20113;-69
2021/03/16 01:04:56;;;;;;;20.98;1.90;;;;;;;2.10;58.09;101795.78;4986636;28;20326;-69
2021/03/16 01:07:21;;;;;;;19.90;2.72;;;;;;;1.98;58.63;101800.81;4985314;28;20037;-69
2021/03/16 01:09:47;;;;;;;35.42;2.35;;;;;;;1.93;58.57;101806.78;4967330;28;20034;-70
2021/03/16 01:12:12;;;;;;;33.25;2.90;;;;;;;1.94;58.79;101800.75;4969263;28;20575;-69
2021/03/16 01:14:38;;;;;;;28.05;3.03;;;;;;;2.00;58.55;101799.09;4971757;28;20456;-69
2021/03/16 01:17:04;;;;;;;20.17;2.08;;;;;;;1.93;58.81;101809.38;4987363;28;20034;-70
2021/03/16 01:19:29;;;;;;;33.15;2.80;;;;;;;1.78;59.48;101809.19;4998944;28;20034;-74
2021/03/16 01:21:55;;;;;;;15.85;2.17;;;;;;;1.90;59.17;101811.88;4970845;28;20069;-69
2021/03/16 01:24:20;;;;;;;24.63;2.55;;;;;;;2.19;57.73;101805.31;4982880;28;20035;-69
2021/03/16 01:26:46;;;;;;;27.20;2.67;;;;;;;1.80;59.31;101811.78;4983095;28;20113;-69
2021/03/16 01:29:12;;;;;;;36.95;1.77;;;;;;;2.07;58.16;101812.09;4988520;28;20121;-69
2021/03/16 01:31:37;;;;;;;24.33;3.45;;;;;;;1.96;58.71;101812.81;4970042;28;20026;-69
2021/03/16 01:34:03;;;;;;;17.83;1.80;;;;;;;1.79;59.00;101810.91;4983598;28;20049;-70
2021/03/16 01:36:28;;;;;;;19.33;1.95;;;;;;;1.60;59.65;101816.72;4968160;28;20034;-69
2021/03/16 01:38:54;;;;;;;19.92;1.70;;;;;;;1.76;59.20;101810.03;4968152;28;20505;-70
2021/03/16 01:41:20;;;;;;;19.00;2.53;;;;;;;1.79;59.29;101816.06;4966459;28;20759;-70
2021/03/16 01:43:45;;;;;;;19.60;1.90;;;;;;;2.17;57.53;101805.28;4968866;28;20077;-69
2021/03/16 01:46:11;;;;;;;24.23;3.03;;;;;;;1.96;58.49;101813.69;4984884;28;20034;-70
2021/03/16 01:48:37;;;;;;;20.67;1.85;;;;;;;2.28;57.06;101821.75;4966076;28;20092;-70
2021/03/16 01:51:06;;;;;;;25.10;2.13;;;;;;;2.10;57.76;101821.56;4968169;28;20050;-69
2021/03/16 01:53:33;;;;;;;35.85;3.28;;;;;;;2.38;56.83;101819.25;4983742;28;20105;-69
2021/03/16 01:56:00;;;;;;;11.35;0.75;;;;;;;2.21;57.30;101819.94;4967985;28;20032;-69
2021/03/16 01:58:47;;;;;;;18.23;1.50;;;;;;;2.52;56.03;101809.94;4971467;28;20046;-69
2021/03/16 02:01:31;;;;;;;18.00;1.25;;;;;;;2.40;56.79;101812.38;4983280;28;20073;-69
2021/03/16 02:04:16;;;;;;;11.57;1.73;;;;;;;2.16;57.27;101819.06;4982608;28;20057;-71
2021/03/16 02:07:16;;;;;;;17.50;1.13;;;;;;;2.55;55.71;101809.94;4981524;28;20052;-70
2021/03/16 02:10:27;;;;;;;14.65;1.80;;;;;;;2.46;56.03;101815.03;4972371;28;20056;-70
2021/03/16 02:13:34;;;;;;;17.92;2.22;;;;;;;2.64;55.38;101824.63;4996279;28;20049;-70
2021/03/16 02:16:29;;;;;;;18.00;1.17;;;;;;;2.35;56.01;101825.25;4983047;28;20061;-69
2021/03/16 02:19:35;;;;;;;16.70;2.17;;;;;;;2.33;56.23;101822.66;4971562;28;20053;-69
2021/03/16 02:22:21;;;;;;;26.23;1.55;;;;;;;2.46;55.53;101821.03;4967915;28;21193;-70
2021/03/16 02:25:40;;;;;;;15.00;2.05;;;;;;;2.58;55.21;101817.72;4983454;28;20057;-69
2021/03/16 02:29:00;;;;;;;11.70;1.35;;;;;;;2.85;54.36;101829.13;4974081;28;20081;-69
2021/03/16 02:31:50;;;;;;;8.32;1.08;;;;;;;2.89;54.55;101828.28;4972632;28;20571;-70
2021/03/16 02:34:36;;;;;;;22.85;1.88;;;;;;;2.72;55.19;101841.06;4987710;28;20057;-70
2021/03/16 02:37:25;;;;;;;18.05;1.80;;;;;;;2.53;55.79;101845.19;4987425;28;20053;-70
2021/03/16 02:40:12;;;;;;;18.92;1.38;;;;;;;2.73;55.23;101848.84;4984581;28;20124;-71
2021/03/16 02:42:56;;;;;;;22.95;1.88;;;;;;;2.86;55.13;101854.09;4988416;28;20084;-71
2021/03/16 02:45:44;;;;;;;17.08;1.73;;;;;;;2.33;56.51;101852.75;4974164;28;20120;-71
2021/03/16 02:48:29;;;;;;;18.77;1.90;;;;;;;2.57;55.98;101850.38;4984106;28;20053;-69
2021/03/16 02:51:15;;;;;;;16.60;1.77;;;;;;;2.56;55.17;101845.25;4987558;28;20589;-69
2021/03/16 02:53:59;;;;;;;16.75;1.38;;;;;;;2.88;54.48;101849.78;4975059;28;20414;-71
2021/03/16 02:56:46;;;;;;;12.70;2.17;;;;;;;3.23;53.15;101854.34;4989042;28;20401;-70
2021/03/16 02:59:32;;;;;;;15.77;1.92;;;;;;;2.98;53.99;101854.19;4985390;28;20050;-70
2021/03/16 03:02:17;;;;;;;10.55;1.33;;;;;;;3.39;53.29;101858.78;4971877;28;20045;-70
2021/03/16 03:05:03;;;;;;;27.73;1.42;;;;;;;3.35;53.43;101872.53;4985699;28;20073;-69
2021/03/16 03:07:49;;;;;;;14.65;1.60;;;;;;;3.42;53.02;101857.94;4987961;28;20096;-69
2021/03/16 03:10:33;;;;;;;6.40;0.90;;;;;;;2.98;53.98;101867.97;4988795;28;21190;-69
2021/03/16 03:13:17;;;;;;;13.95;0.98;;;;;;;2.94;53.15;101868.78;4988195;28;20057;-69
2021/03/16 03:16:01;;;;;;;4.43;0.30;;;;;;;3.17;52.71;101863.78;4982513;28;20804;-69
2021/03/16 03:18:45;;;;;;;10.77;0.80;;;;;;;3.00;53.40;101870.53;4988413;28;20045;-70
2021/03/16 03:21:50;;;;;;;5.25;1.05;;;;;;;2.88;53.25;101875.63;4987019;28;20046;-70
2021/03/16 03:24:44;;;;;;;5.45;0.65;;;;;;;3.52;51.70;101876.09;4984270;28;20053;-70
2021/03/16 03:27:33;;;;;;;3.78;0.20;;;;;;;3.29;51.85;101878.56;4986667;28;20096;-69
2021/03/16 03:30:20;;;;;;;11.05;1.05;;;;;;;3.46;51.49;101881.22;4974331;28;20708;-70
2021/03/16 03:33:06;;;;;;;17.10;0.88;;;;;;;3.52;51.47;101881.25;4989416;28;20598;-70
2021/03/16 03:35:50;;;;;;;16.85;1.13;;;;;;;3.63;51.85;101883.03;4988484;28;20925;-69
2021/03/16 03:38:36;;;;;;;16.85;0.93;;;;;;;3.62;51.96;101891.66;4985468;28;20097;-70
2021/03/16 03:41:26;;;;;;;9.32;1.50;;;;;;;2.65;54.17;101886.63;4987550;28;20132;-70
2021/03/16 03:44:11;;;;;;;6.15;0.38;;;;;;;3.31;51.99;101899.22;4987363;28;20064;-70
2021/03/16 03:46:56;;;;;;;6.32;0.50;;;;;;;3.13;52.33;101903.34;4989786;28;20085;-71
2021/03/16 03:49:41;;;;;;;9.85;0.90;;;;;;;3.08;52.71;101899.88;4992070;28;20053;-70
2021/03/16 03:52:27;;;;;;;15.18;1.55;;;;;;;3.12;52.92;101905.94;4970124;28;20044;-70
2021/03/16 03:55:13;;;;;;;11.27;1.05;;;;;;;2.92;53.25;101895.47;4985922;28;20386;-70
2021/03/16 03:57:58;;;;;;;11.10;1.70;;;;;;;2.80;53.42;101906.56;4982732;28;20202;-70
2021/03/16 04:00:42;;;;;;;10.75;1.10;;;;;;;3.18;52.57;101904.28;4984348;28;20042;-70
2021/03/16 04:03:26;;;;;;;5.78;0.93;;;;;;;3.07;52.88;101908.50;4985752;28;20393;-71
2021/03/16 04:06:10;;;;;;;9.32;0.90;;;;;;;3.15;52.37;101916.28;4984431;28;20053;-70
2021/03/16 04:08:55;;;;;;;3.85;0.40;;;;;;;3.37;51.78;101917.34;4984121;28;20081;-70
2021/03/16 04:11:39;;;;;;;5.93;0.65;;;;;;;2.93;51.87;101915.25;4986789;28;20058;-69
2021/03/16 04:14:25;;;;;;;6.70;0.68;;;;;;;3.21;50.71;101905.16;4984756;28;20056;-70
2021/03/16 04:17:09;;;;;;;10.00;0.68;;;;;;;2.63;51.57;101903.81;4985125;28;20057;-69
2021/03/16 04:19:54;;;;;;;1.73;0.15;;;;;;;3.05;50.76;101911.94;4983989;28;20049;-70
2021/03/16 04:22:40;;;;;;;4.50;0.32;;;;;;;3.02;50.51;101915.31;4982539;28;20516;-70
2021/03/16 04:25:25;;;;;;;7.20;0.22;;;;;;;3.33;49.72;101911.28;4985364;28;20592;-69
2021/03/16 04:28:09;;;;;;;4.80;0.88;;;;;;;3.04;50.42;101913.63;4982592;28;20481;-72
2021/03/16 04:30:53;;;;;;;10.00;0.40;;;;;;;2.93;50.68;101915.25;4984936;28;20421;-71
2021/03/16 04:33:37;;;;;;;6.93;0.40;;;;;;;3.25;49.59;101915.53;4981970;28;20065;-70
2021/03/16 04:36:21;;;;;;;8.20;0.40;;;;;;;3.41;49.53;101924.28;4984235;28;20052;-70
2021/03/16 04:39:05;;;;;;;12.85;0.38;;;;;;;2.95;50.66;101923.88;4985308;28;20113;-70
2021/03/16 04:41:49;;;;;;;5.65;0.50;;;;;;;3.16;49.84;101918.91;4983849;28;20061;-70
2021/03/16 04:44:33;;;;;;;7.85;0.50;;;;;;;2.96;50.38;101923.91;4966857;28;20100;-70
2021/03/16 04:47:17;;;;;;;8.18;0.40;;;;;;;2.69;50.70;101923.63;4983115;28;20108;-70
2021/03/16 04:50:02;;;;;;;6.75;0.40;;;;;;;3.27;50.05;101924.16;4983153;28;20256;-69
2021/03/16 04:52:47;;;;;;;8.32;1.85;;;;;;;3.49;49.59;101930.38;4989365;28;20161;-70
2021/03/16 04:55:31;;;;;;;6.55;0.50;;;;;;;3.00;51.15;101935.09;4970038;28;20056;-70
2021/03/16 04:58:15;;;;;;;4.53;0.60;;;;;;;3.19;50.33;101939.56;4980232;28;20100;-70
2021/03/16 05:00:59;;;;;;;15.70;0.77;;;;;;;3.31;50.73;101940.56;4971092;28;20053;-71
2021/03/16 05:03:43;;;;;;;9.10;0.70;;;;;;;3.41;50.22;101944.94;4985140;28;20196;-70
2021/03/16 05:06:26;;;;;;;9.02;1.10;;;;;;;3.51;50.59;101949.31;4968160;28;20064;-70
2021/03/16 05:09:12;;;;;;;6.10;0.65;;;;;;;3.03;51.42;101950.66;4981247;28;20049;-70
2021/03/16 05:11:56;;;;;;;5.97;0.45;;;;;;;3.21;51.22;101952.53;4984217;28;20064;-70
2021/03/16 05:14:40;;;;;;;11.65;0.70;;;;;;;3.50;50.84;101952.75;4983532;28;20408;-69
2021/03/16 05:17:24;;;;;;;6.00;0.73;;;;;;;3.59;50.54;101945.06;4984523;28;20045;-70
2021/03/16 05:20:09;;;;;;;7.13;0.77;;;;;;;3.16;51.47;101955.06;4970364;28;20733;-70
2021/03/16 05:22:54;;;;;;;8.70;1.90;;;;;;;2.67;52.39;101956.34;4981812;28;20358;-70
2021/03/16 05:25:38;;;;;;;8.73;1.10;;;;;;;3.21;51.00;101962.00;4984479;28;20054;-70
2021/03/16 05:28:22;;;;;;;7.90;0.70;;;;;;;3.15;50.98;101958.47;4981849;28;20133;-70
2021/03/16 05:31:07;;;;;;;8.63;1.17;;;;;;;3.38;50.63;101965.59;4985343;28;20049;-69
2021/03/16 05:33:50;;;;;;;3.95;0.47;;;;;;;3.31;51.30;101962.09;4981518;28;20060;-70
2021/03/16 05:36:35;;;;;;;3.55;1.20;;;;;;;3.15;51.61;101968.81;4993668;28;20101;-70
2021/03/16 05:39:19;;;;;;;4.00;0.80;;;;;;;2.91;52.32;101973.75;4979159;28;20052;-70
2021/03/16 05:42:03;;;;;;;2.85;0.45;;;;;;;3.18;51.36;101973.19;4993000;28;20096;-69
2021/03/16 05:44:48;;;;;;;10.85;0.57;;;;;;;3.05;51.36;101982.53;4980685;28;20121;-71
2021/03/16 05:47:33;;;;;;;7.82;0.73;;;;;;;3.10;51.29;101986.00;4970352;28;20054;-70
2021/03/16 05:50:18;;;;;;;4.10;0.50;;;;;;;3.21;50.60;101987.81;4984002;28;20755;-70
2021/03/16 05:53:04;;;;;;;11.20;1.45;;;;;;;2.95;51.42;101985.84;4984960;28;20130;-70
2021/03/16 05:55:49;;;;;;;3.72;0.30;;;;;;;2.93;51.08;101988.41;4990627;28;20513;-70
2021/03/16 05:58:35;;;;;;;8.65;0.80;;;;;;;2.87;50.47;101997.84;4982778;28;20054;-70
2021/03/16 06:01:19;;;;;;;4.00;0.73;;;;;;;3.26;49.79;101994.75;4978887;28;20045;-70
2021/03/16 06:04:03;;;;;;;8.90;0.55;;;;;;;3.23;50.01;101996.47;4982761;28;20108;-70
2021/03/16 06:06:47;;;;;;;8.43;0.80;;;;;;;2.76;51.34;101996.00;4987954;28;20077;-70
2021/03/16 06:09:33;;;;;;;13.60;1.58;;;;;;;3.21;50.46;102004.19;4986735;28;20101;-70
2021/03/16 06:12:28;;;;;;;10.13;0.77;;;;;;;3.40;50.19;102000.06;4986390;28;20143;-70
2021/03/16 06:15:14;;;;;;;7.85;0.63;;;;;;;3.34;50.42;102000.03;4972651;28;20077;-70
2021/03/16 06:17:58;;;;;;;8.82;0.80;;;;;;;3.50;49.98;101996.72;4986150;28;20061;-70
2021/03/16 06:20:42;;;;;;;7.15;1.27;;;;;;;3.34;50.42;102005.22;4987004;28;20045;-70
2021/03/16 06:23:31;;;;;;;6.18;1.00;;;;;;;3.08;50.52;102000.63;4985224;28;20089;-70
2021/03/16 06:26:15;;;;;;;9.98;0.40;;;;;;;3.42;50.05;102008.69;4985315;28;20163;-70
2021/03/16 06:29:09;;;;;;;10.88;0.50;;;;;;;3.21;50.85;102011.09;4986070;28;20061;-70
2021/03/16 06:31:54;;;;;;;6.00;1.02;;;;;;;3.24;50.23;102013.69;4973040;28;20449;-70
2021/03/16 06:34:38;;;;;;;12.63;1.02;;;;;;;3.63;49.60;102012.28;4985178;28;20121;-70
2021/03/16 06:37:21;;;;;;;10.82;1.10;;;;;;;3.66;49.56;102020.09;4985311;28;20134;-70
2021/03/16 06:40:06;;;;;;;13.75;0.85;;;;;;;3.75;49.20;102017.56;4982346;28;20058;-70
2021/03/16 06:43:04;;;;;;;6.82;0.45;;;;;;;3.38;49.99;102019.84;4985417;28;20050;-70
2021/03/16 06:45:51;;;;;;;9.50;0.82;;;;;;;3.53;49.61;102016.53;4983106;28;20045;-70
2021/03/16 06:48:37;;;;;;;8.07;0.98;;;;;;;2.93;50.66;102024.56;4985382;28;20069;-70
2021/03/16 06:51:28;;;;;;;6.60;0.45;;;;;;;3.53;49.34;102027.75;4971713;28;20136;-70
2021/03/16 06:54:14;;;;;;;6.55;0.60;;;;;;;3.65;49.33;102026.09;4986035;28;20084;-70
2021/03/16 06:57:00;;;;;;;6.72;0.50;;;;;;;3.27;49.93;102026.63;4985780;28;20825;-69
2021/03/16 06:59:44;;;;;;;8.13;1.23;;;;;;;3.45;49.55;102034.59;4985181;28;20054;-70
2021/03/16 07:02:29;;;;;;;5.60;0.22;;;;;;;3.48;49.63;102032.00;4985978;28;20109;-69
2021/03/16 07:05:23;;;;;;;6.35;1.00;;;;;;;3.51;49.23;102034.59;4968403;28;20053;-69
2021/03/16 07:08:08;;;;;;;5.20;1.02;;;;;;;3.85;48.76;102028.81;4986246;28;20089;-69
2021/03/16 07:10:52;;;;;;;3.55;0.57;;;;;;;3.52;49.36;102031.19;4987755;28;20041;-70
2021/03/16 07:13:37;;;;;;;5.70;0.65;;;;;;;3.48;49.56;102032.00;4995127;28;20049;-69
2021/03/16 07:16:22;;;;;;;6.97;1.50;;;;;;;4.07;48.46;102046.22;4981708;28;20060;-70
2021/03/16 07:19:07;;;;;;;6.03;1.05;;;;;;;3.72;49.42;102046.00;4986905;28;20052;-70
2021/03/16 07:21:53;;;;;;;17.13;1.40;;;;;;;3.71;49.78;102042.53;4983370;28;20049;-69
2021/03/16 07:24:37;;;;;;;18.50;2.28;;;;;;;4.06;49.38;102048.81;4982765;28;20080;-70
2021/03/16 07:27:21;;;;;;;7.22;1.15;;;;;;;4.45;48.67;102057.63;4986381;28;20584;-69
2021/03/16 07:30:07;;;;;;;19.65;1.08;;;;;;;4.41;49.31;102057.63;4981604;28;20577;-70
2021/03/16 07:32:53;;;;;;;11.27;1.15;;;;;;;4.48;48.02;102057.66;4983038;28;20128;-70
2021/03/16 07:35:38;;;;;;;5.25;0.60;;;;;;;4.23;49.03;102052.38;4983816;28;20069;-71
2021/03/16 07:38:23;;;;;;;13.25;0.70;;;;;;;4.01;49.73;102056.53;4983895;28;20053;-70
2021/03/16 07:41:09;;;;;;;10.63;0.80;;;;;;;3.86;49.79;102059.03;4970505;28;20105;-72
2021/03/16 07:44:05;;;;;;;16.95;0.88;;;;;;;4.02;49.19;102058.25;4987598;28;20105;-70
2021/03/16 07:46:56;;;;;;;8.52;0.68;;;;;;;4.26;48.59;102059.28;4979949;28;20786;-70
2021/03/16 07:49:41;;;;;;;9.80;0.65;;;;;;;4.51;48.01;102068.88;4984797;28;20422;-71
2021/03/16 07:52:26;;;;;;;12.43;1.45;;;;;;;4.86;46.78;102069.88;4971941;28;20104;-71
2021/03/16 07:55:23;;;;;;;6.80;1.30;;;;;;;4.45;46.70;102075.75;4993463;28;20084;-70
2021/03/16 07:58:12;;;;;;;9.32;1.10;;;;;;;4.74;45.57;102079.31;4970260;28;20155;-71
2021/03/16 08:01:07;;;;;;;14.98;0.82;;;;;;;5.14;45.43;102078.59;4972868;28;20088;-71
2021/03/16 08:04:05;;;;;;;16.98;1.27;;;;;;;5.08;45.72;102087.25;4986292;28;20045;-71
2021/03/16 08:07:00;;;;;;;9.57;1.00;;;;;;;4.54;46.80;102091.31;4993355;28;20049;-71
2021/03/16 08:09:46;;;;;;;10.55;1.67;;;;;;;4.56;46.74;102087.88;4982413;28;20052;-71
2021/03/16 08:12:31;;;;;;;9.02;0.80;;;;;;;4.80;46.47;102089.72;4983441;28;20037;-71
2021/03/16 08:15:16;;;;;;;13.35;0.77;;;;;;;4.31;46.89;102096.38;4982329;28;20049;-71
2021/03/16 08:18:00;;;;;;;9.68;0.85;;;;;;;4.76;45.78;102100.06;4982424;28;20088;-71
2021/03/16 08:20:47;;;;;;;9.88;1.30;;;;;;;5.04;44.97;102096.72;4985583;28;20050;-70
2021/03/16 08:23:32;;;;;;;9.68;0.55;;;;;;;5.46;44.06;102094.22;4968922;28;20147;-70
2021/03/16 08:26:16;;;;;;;8.18;0.70;;;;;;;5.38;42.71;102091.59;4968934;28;20053;-70
2021/03/16 08:29:01;;;;;;;11.45;1.13;;;;;;;5.33;41.69;102095.94;4982612;28;20065;-70
2021/03/16 08:31:44;;;;;;;6.93;0.85;;;;;;;4.90;42.48;102100.13;4980297;28;20141;-70
2021/03/16 08:34:30;;;;;;;16.95;1.52;;;;;;;5.40;41.84;102108.03;4980647;28;20127;-70
2021/03/16 08:37:22;;;;;;;9.88;0.55;;;;;;;5.91;41.08;102108.06;4971160;28;20061;-70
2021/03/16 08:40:08;;;;;;;10.18;1.20;;;;;;;6.15;40.27;102111.47;4979288;28;20061;-69
2021/03/16 08:42:53;;;;;;;14.77;0.55;;;;;;;6.91;39.76;102107.81;4961388;28;20809;-70
2021/03/16 08:45:37;;;;;;;14.50;1.23;;;;;;;7.24;39.01;102109.34;4981322;28;20138;-70
2021/03/16 08:48:29;;;;;;;20.98;1.98;;;;;;;6.77;39.73;102113.06;4979988;28;20061;-70
2021/03/16 08:51:20;;;;;;;19.38;1.58;;;;;;;6.59;40.41;102107.94;4981433;28;20057;-71
2021/03/16 08:54:05;;;;;;;17.27;1.35;;;;;;;6.16;40.91;102121.00;4981880;28;20111;-71
2021/03/16 08:56:49;;;;;;;12.43;0.68;;;;;;;6.53;39.90;102128.72;4989775;28;20129;-69
2021/03/16 08:59:33;;;;;;;17.27;2.30;;;;;;;5.45;40.99;102128.78;4977552;28;20136;-71
2021/03/16 09:02:22;;;;;;;18.42;1.05;;;;;;;7.42;38.51;102124.00;4981700;28;20057;-70
2021/03/16 09:05:20;;;;;;;6.22;0.75;;;;;;;7.06;38.49;102130.25;4980459;28;20060;-71
2021/03/16 09:08:05;;;;;;;6.35;0.75;;;;;;;6.42;38.89;102140.03;4964822;28;20080;-70
2021/03/16 09:10:49;;;;;;;10.55;1.15;;;;;;;5.95;40.60;102134.84;4981002;28;20128;-69
2021/03/16 09:13:33;;;;;;;10.75;0.90;;;;;;;5.94;40.98;102135.72;4966571;28;20180;-72
2021/03/16 09:16:24;;;;;;;10.00;1.13;;;;;;;5.56;41.20;102141.78;4967185;28;20202;-72
2021/03/16 09:19:11;;;;;;;3.45;0.77;;;;;;;6.15;38.99;102142.63;4980055;28;20057;-71
2021/03/16 09:22:01;;;;;;;12.57;0.82;;;;;;;6.17;38.42;102146.09;4966815;28;20600;-71
2021/03/16 09:24:45;;;;;;;17.85;0.70;;;;;;;6.75;37.20;102151.16;4977324;28;20053;-70
2021/03/16 09:27:30;;;;;;;14.93;1.02;;;;;;;7.05;38.19;102144.13;4977830;28;20196;-70
2021/03/16 09:30:16;;;;;;;9.98;0.73;;;;;;;7.46;38.61;102143.03;4977177;28;20141;-71
2021/03/16 09:33:02;;;;;;;12.65;1.27;;;;;;;7.28;38.14;102150.06;4979657;28;20128;-70
2021/03/16 09:36:00;;;;;;;15.32;1.23;;;;;;;6.39;39.57;102155.59;4967196;28;20192;-70
2021/03/16 09:38:32;;;;;;;7.95;0.60;;;;;;;5.83;40.35;102159.09;4964596;28;20034;-70
2021/03/16 09:41:09;;;;;;;7.00;1.30;;;;;;;5.77;40.50;102151.28;4969588;28;20530;-71
2021/03/16 09:43:38;;;;;;;11.15;0.77;;;;;;;6.94;38.55;102156.31;4985346;28;20401;-70
2021/03/16 09:46:12;;;;;;;14.30;1.20;;;;;;;7.38;36.24;102156.09;4965804;28;20572;-70
2021/03/16 09:48:39;;;;;;;6.97;1.55;;;;;;;7.63;36.09;102156.81;4986906;28;20069;-70
2021/03/16 09:51:17;;;;;;;17.25;0.73;;;;;;;7.17;36.33;102141.47;4964837;28;20739;-70
2021/03/16 09:53:53;;;;;;;9.15;0.82;;;;;;;6.98;36.91;102158.91;4985965;28;20767;-71
2021/03/16 09:56:26;;;;;;;7.45;0.55;;;;;;;8.60;34.67;102158.53;4963266;28;20129;-70
2021/03/16 09:58:52;;;;;;;6.90;0.77;;;;;;;8.17;34.12;102158.13;4981312;28;20034;-70
2021/03/16 10:01:21;;;;;;;8.27;0.80;;;;;;;8.18;34.03;102157.22;4995093;28;20749;-70
2021/03/16 10:04:14;;;;;;;8.05;0.60;;;;;;;8.93;33.12;102165.13;4961077;28;20125;-70
2021/03/16 10:06:44;;;;;;;6.63;0.55;;;;;;;8.60;33.93;102168.09;4965243;28;20042;-71
2021/03/16 10:09:14;;;;;;;8.05;0.95;;;;;;;8.10;35.18;102163.38;4971646;28;20512;-69
2021/03/16 10:11:39;;;;;;;8.57;0.80;;;;;;;8.62;34.47;102169.78;4968760;28;20031;-71
2021/03/16 10:14:05;;;;;;;7.40;1.33;;;;;;;8.72;34.28;102179.28;4950509;28;20034;-71
2021/03/16 10:16:31;;;;;;;7.45;0.50;;;;;;;7.66;35.38;102184.56;4966659;28;20064;-70
2021/03/16 10:18:57;;;;;;;11.68;1.00;;;;;;;7.56;35.49;102183.75;4983765;28;20057;-71
2021/03/16 10:21:33;;;;;;;11.75;1.08;;;;;;;7.40;36.38;102176.88;4986790;28;20721;-72
2021/03/16 10:24:07;;;;;;;13.30;0.55;;;;;;;6.48;36.63;102172.91;4986344;28;20090;-70
2021/03/16 10:26:33;;;;;;;13.00;1.27;;;;;;;7.30;36.96;102171.72;4970704;28;20061;-70
2021/03/16 10:29:10;;;;;;;7.72;0.80;;;;;;;6.91;36.40;102183.19;4967566;28;20062;-71
2021/03/16 10:31:36;;;;;;;7.05;0.45;;;;;;;6.66;37.21;102184.97;4983474;28;20057;-69
2021/03/16 10:34:01;;;;;;;6.53;0.73;;;;;;;6.71;36.99;102170.25;4983931;28;20493;-70
2021/03/16 10:36:34;;;;;;;12.85;1.15;;;;;;;6.83;36.62;102170.22;4993895;28;20037;-70
2021/03/16 10:39:01;;;;;;;6.45;0.45;;;;;;;7.73;35.59;102184.53;4971924;28;20042;-71
2021/03/16 10:41:28;;;;;;;10.13;0.45;;;;;;;8.42;35.66;102177.81;4950237;28;20029;-69
2021/03/16 10:43:54;;;;;;;8.85;0.75;;;;;;;8.35;34.48;102178.78;4984510;28;20030;-70
2021/03/16 10:46:20;;;;;;;6.00;0.47;;;;;;;8.52;34.03;102171.66;4967832;28;20041;-71
2021/03/16 10:48:48;;;;;;;7.75;0.80;;;;;;;8.71;33.45;102174.09;4963358;28;20030;-71
2021/03/16 10:51:15;;;;;;;5.57;0.55;;;;;;;7.80;34.64;102171.44;4980150;28;20113;-70
2021/03/16 10:53:41;;;;;;;9.65;0.50;;;;;;;7.50;35.16;102174.22;4982871;28;20030;-70
2021/03/16 10:56:07;;;;;;;3.58;0.50;;;;;;;7.64;35.70;102181.09;4966889;28;20047;-69
2021/03/16 10:58:34;;;;;;;6.22;0.77;;;;;;;8.55;35.25;102171.59;4965633;28;20050;-69
2021/03/16 11:01:02;;;;;;;10.02;0.47;;;;;;;9.22;32.87;102176.91;5000405;28;20035;-70
2021/03/16 11:03:28;;;;;;;7.80;1.77;;;;;;;9.25;32.21;102176.88;4964741;28;20034;-70
2021/03/16 11:05:54;;;;;;;6.53;0.73;;;;;;;7.71;33.68;102175.84;4965899;28;20042;-69
2021/03/16 11:08:20;;;;;;;5.03;0.25;;;;;;;8.11;33.92;102175.53;4967438;28;20041;-71
2021/03/16 11:10:45;;;;;;;6.63;0.93;;;;;;;8.31;33.63;102179.66;4949577;28;20484;-71
2021/03/16 11:13:11;;;;;;;6.90;0.40;;;;;;;8.55;32.92;102179.41;4978341;28;20038;-70
2021/03/16 11:15:38;;;;;;;7.68;0.32;;;;;;;8.48;32.04;102180.38;4983205;28;20038;-69
2021/03/16 11:18:04;;;;;;;11.52;0.52;;;;;;;8.62;32.31;102181.97;4950115;28;20129;-71
2021/03/16 11:20:30;;;;;;;5.70;0.65;;;;;;;9.50;31.22;102182.63;4950401;28;20108;-70
2021/03/16 11:23:00;;;;;;;9.20;0.70;;;;;;;8.11;33.47;102177.25;4974263;28;20478;-70
2021/03/16 11:25:26;;;;;;;9.05;0.40;;;;;;;8.09;33.51;102171.19;4978675;28;20038;-69
2021/03/16 11:27:52;;;;;;;3.58;0.50;;;;;;;7.80;33.73;102174.94;4967818;28;20042;-69
2021/03/16 11:30:18;;;;;;;10.27;0.70;;;;;;;8.23;32.47;102187.56;4966012;28;20069;-70
2021/03/16 11:32:44;;;;;;;7.57;0.80;;;;;;;8.83;32.63;102180.88;4979289;28;20045;-71
2021/03/16 11:35:28;;;;;;;5.13;0.63;;;;;;;8.21;33.71;102184.13;4984484;28;20057;-72
2021/03/16 11:38:12;;;;;;;11.18;0.50;;;;;;;7.74;34.31;102183.63;4982081;28;20077;-69
2021/03/16 11:40:56;;;;;;;8.45;0.63;;;;;;;8.63;33.61;102176.75;4980758;28;20208;-69
2021/03/16 11:43:40;;;;;;;9.88;0.43;;;;;;;8.93;32.65;102185.13;4982797;28;20054;-70
2021/03/16 11:46:25;;;;;;;14.75;0.68;;;;;;;9.09;33.31;102185.78;4978959;28;20041;-70
2021/03/16 11:49:09;;;;;;;4.20;0.63;;;;;;;9.18;31.57;102185.66;4982704;28;20050;-70
2021/03/16 11:51:54;;;;;;;4.32;0.73;;;;;;;9.58;31.34;102185.09;4968120;28;20057;-69
2021/03/16 11:54:38;;;;;;;4.60;0.57;;;;;;;9.76;30.37;102174.38;4986000;28;20052;-68
2021/03/16 11:57:23;;;;;;;10.77;0.68;;;;;;;10.24;30.55;102186.69;4977195;28;20137;-71
2021/03/16 12:00:07;;;;;;;5.10;0.93;;;;;;;9.50;30.43;102193.06;4970995;28;20057;-71
2021/03/16 12:02:52;;;;;;;9.32;0.40;;;;;;;8.64;32.33;102182.81;4980362;28;20256;-70
2021/03/16 12:05:36;;;;;;;4.45;0.40;;;;;;;8.93;32.36;102175.53;4979438;28;20113;-70
2021/03/16 12:08:21;;;;;;;9.57;0.35;;;;;;;9.71;31.22;102186.66;4982422;28;20155;-69
2021/03/16 12:11:06;;;;;;;4.63;0.30;;;;;;;9.48;31.70;102181.78;4979330;28;20282;-70
2021/03/16 12:13:50;;;;;;;1.38;0.43;;;;;;;9.10;32.35;102177.94;4982012;28;20049;-71
2021/03/16 12:16:35;;;;;;;5.05;0.50;;;;;;;9.92;30.52;102171.56;4967357;28;20105;-70
2021/03/16 12:19:19;;;;;;;6.95;0.98;;;;;;;8.91;31.63;102177.31;4983193;28;20061;-69
2021/03/16 12:22:04;;;;;;;6.13;0.20;;;;;;;8.69;32.48;102171.44;4965375;28;20049;-71
2021/03/16 12:24:48;;;;;;;5.03;0.30;;;;;;;8.70;31.23;102177.53;4967236;28;20107;-72
2021/03/16 12:27:33;;;;;;;7.20;0.50;;;;;;;8.36;32.43;102172.69;4989775;28;20105;-70
2021/03/16 12:30:17;;;;;;;5.85;0.50;;;;;;;7.68;33.48;102178.47;4979431;28;20539;-70